Doyles Airport


Codes: DE00/
Name: Doyles Airport
City: Felton
Country: United States
Elevation: 51 ft.

Photos at Doyles Airport


   Photos courtesy of SpottingLog. You can add your own sightings and photos by signing up for a free trial today.



No photos found.

Weather at Doyles Airport


Time (UTC)DescriptionTempratureWindCloud coverageVisibilityPressureHumidity
16-Jun-2024 03:00Clear Sky22°C4 mph, SE1%10000m1018hPa62%
16-Jun-2024 06:00Few Clouds19°C2 mph, NW14%10000m1019hPa74%
16-Jun-2024 09:00Scattered Clouds16°C4 mph, NE43%10000m1021hPa85%
16-Jun-2024 12:00Few Clouds20°C9 mph, NE24%10000m1023hPa64%
16-Jun-2024 15:00Broken Clouds23°C9 mph, E55%10000m1024hPa49%
16-Jun-2024 18:00Broken Clouds26°C9 mph, E77%10000m1023hPa47%
16-Jun-2024 21:00Overcast Clouds23°C11 mph, SE92%10000m1023hPa60%
17-Jun-2024 00:00Overcast Clouds20°C9 mph, SE95%10000m1023hPa78%
17-Jun-2024 03:00Overcast Clouds18°C7 mph, SE94%10000m1023hPa84%
17-Jun-2024 06:00Overcast Clouds17°C7 mph, S96%10000m1023hPa76%
17-Jun-2024 09:00Scattered Clouds17°C7 mph, S46%10000m1023hPa78%
17-Jun-2024 12:00Few Clouds21°C9 mph, S24%10000m1023hPa68%
17-Jun-2024 15:00Clear Sky27°C11 mph, SW2%10000m1023hPa49%
17-Jun-2024 18:00Clear Sky30°C11 mph, SW1%10000m1021hPa43%
17-Jun-2024 21:00Clear Sky30°C13 mph, SW0%10000m1021hPa44%
18-Jun-2024 00:00Clear Sky25°C11 mph, S0%10000m1021hPa63%
18-Jun-2024 03:00Clear Sky21°C11 mph, S0%10000m1022hPa71%
18-Jun-2024 06:00Clear Sky19°C7 mph, S10%10000m1023hPa80%
18-Jun-2024 09:00Few Clouds19°C7 mph, S19%10000m1023hPa84%
18-Jun-2024 12:00Few Clouds23°C9 mph, S18%10000m1024hPa72%
18-Jun-2024 15:00Broken Clouds28°C9 mph, SW53%10000m1024hPa53%
18-Jun-2024 18:00Broken Clouds32°C7 mph, S77%10000m1023hPa45%
18-Jun-2024 21:00Overcast Clouds32°C9 mph, S100%10000m1023hPa46%
19-Jun-2024 00:00Broken Clouds24°C13 mph, S69%10000m1024hPa60%
19-Jun-2024 03:00Scattered Clouds21°C9 mph, S28%10000m1025hPa69%
19-Jun-2024 06:00Broken Clouds20°C7 mph, S59%10000m1025hPa84%
19-Jun-2024 09:00Broken Clouds18°C4 mph, S52%10000m1026hPa90%
19-Jun-2024 12:00Broken Clouds22°C4 mph, S52%10000m1028hPa73%
19-Jun-2024 15:00Scattered Clouds28°C7 mph, S30%10000m1028hPa51%
19-Jun-2024 18:00Few Clouds30°C9 mph, SE23%10000m1027hPa47%
19-Jun-2024 21:00Clear Sky30°C11 mph, SE9%10000m1026hPa46%
20-Jun-2024 00:00Few Clouds24°C9 mph, S19%10000m1027hPa65%
20-Jun-2024 03:00Few Clouds19°C7 mph, S15%10000m1027hPa83%
20-Jun-2024 06:00Scattered Clouds18°C7 mph, S25%10000m1027hPa90%
20-Jun-2024 09:00Few Clouds17°C4 mph, SW16%10000m1028hPa93%
20-Jun-2024 12:00Few Clouds22°C4 mph, SW13%10000m1029hPa73%
20-Jun-2024 15:00Clear Sky27°C7 mph, SW8%10000m1028hPa49%
20-Jun-2024 18:00Clear Sky31°C4 mph, S6%10000m1027hPa38%
20-Jun-2024 21:00Scattered Clouds30°C4 mph, E45%10000m1026hPa44%
21-Jun-2024 00:00Scattered Clouds25°C7 mph, S38%10000m1026hPa65%